Time;durP1;ratioP1;P1;durP2;ratioP2;P2;SDS_P1;SDS_P2;PMS_P1;PMS_P2;Temp;Humidity;BMP_temperature;BMP_pressure;BME280_temperature;BME280_humidity;BME280_pressure;Samples;Min_cycle;Max_cycle;Signal;HPM_P1;HPM_P2
2022/02/05 00:03:06;;;;;;;5.32;3.35;;;;;;;24.71;18.04;97441.91;5063876;28;20408;-80
2022/02/05 00:05:46;;;;;;;6.35;2.92;;;;;;;24.65;18.44;97452.91;5066631;28;20106;-80
2022/02/05 00:38:23;;;;;;;2.80;2.10;;;;;;;24.12;18.79;97425.06;5059561;28;20055;-80
2022/02/05 00:40:55;;;;;;;3.42;2.53;;;;;;;23.98;19.06;97435.47;5069372;28;20071;-80
2022/02/05 00:43:22;;;;;;;4.82;2.15;;;;;;;24.20;18.89;97429.97;5060571;28;20489;-80
2022/02/05 00:45:53;;;;;;;3.78;2.25;;;;;;;24.69;18.14;97430.34;5054807;28;20508;-80
2022/02/05 00:48:20;;;;;;;6.38;3.13;;;;;;;23.93;18.79;97429.63;5071000;28;20307;-80
2022/02/05 00:51:08;;;;;;;6.38;3.33;;;;;;;24.65;18.28;97438.09;5070932;28;20112;-80
2022/02/05 00:53:34;;;;;;;5.05;2.88;;;;;;;24.03;19.16;97429.31;5061399;28;20044;-80
2022/02/05 00:58:38;;;;;;;6.15;2.60;;;;;;;24.68;18.25;97440.00;5061431;28;20135;-80
2022/02/05 01:01:07;;;;;;;5.13;3.57;;;;;;;24.60;18.38;97433.84;5065706;28;20060;-80
2022/02/05 01:03:36;;;;;;;5.65;2.75;;;;;;;24.34;18.81;97428.75;5066530;28;20279;-80
2022/02/05 01:06:04;;;;;;;3.67;2.50;;;;;;;24.20;18.88;97432.03;5069313;28;20055;-80
2022/02/05 01:08:32;;;;;;;4.47;2.78;;;;;;;23.68;19.39;97430.44;5064319;28;20028;-80
2022/02/05 01:10:58;;;;;;;6.30;3.45;;;;;;;23.66;19.34;97429.28;5067993;28;20495;-80
2022/02/05 01:13:26;;;;;;;5.22;2.90;;;;;;;23.39;19.77;97435.28;5064805;28;20112;-80
2022/02/05 01:16:20;;;;;;;5.28;2.85;;;;;;;23.88;19.19;97441.41;5064413;28;20044;-80
2022/02/05 01:18:41;;;;;;;5.13;2.55;;;;;;;23.88;19.02;97433.00;5064502;28;20053;-80
2022/02/05 01:23:48;;;;;;;3.80;2.60;;;;;;;24.20;18.82;97429.22;5062694;28;20090;-80
2022/02/05 01:28:52;;;;;;;4.60;3.08;;;;;;;23.43;20.35;97426.81;5068624;28;20523;-80
2022/02/05 01:31:24;;;;;;;4.10;3.30;;;;;;;24.29;18.98;97430.09;5066338;28;20083;-80
2022/02/05 01:34:04;;;;;;;4.05;2.40;;;;;;;24.82;18.21;97428.31;5064754;28;20040;-80
2022/02/05 01:39:25;;;;;;;4.43;2.95;;;;;;;24.78;18.34;97424.84;5061296;28;20055;-80
2022/02/05 01:48:42;;;;;;;5.20;2.95;;;;;;;24.22;19.14;97435.94;5066795;28;20135;-80
2022/02/05 01:56:14;;;;;;;4.88;2.80;;;;;;;24.57;18.56;97411.53;5058030;28;20523;-80
2022/02/05 02:12:21;;;;;;;2.58;2.03;;;;;;;25.54;17.51;97428.09;5063190;28;20098;-80
2022/02/05 02:27:52;;;;;;;2.50;2.03;;;;;;;24.89;18.16;97393.56;5059654;28;20121;-80
2022/02/05 02:30:24;;;;;;;3.13;2.20;;;;;;;24.39;18.60;97391.69;5062841;28;20481;-80
2022/02/05 02:32:58;;;;;;;4.03;2.50;;;;;;;24.86;18.19;97408.50;5065950;28;20107;-80
2022/02/05 02:35:27;;;;;;;6.00;3.22;;;;;;;24.45;18.94;97413.13;5065397;28;20115;-80
2022/02/05 02:38:00;;;;;;;4.50;3.00;;;;;;;24.95;18.31;97417.03;5065169;28;20066;-80
2022/02/05 02:43:23;;;;;;;2.72;2.00;;;;;;;25.41;17.73;97432.97;5070221;28;20059;-80
2022/02/05 02:45:49;;;;;;;3.58;2.10;;;;;;;24.69;18.39;97441.59;5060771;28;20069;-79
2022/02/05 02:48:16;;;;;;;4.70;2.28;;;;;;;24.53;18.54;97452.94;5063501;28;20558;-80
2022/02/05 02:59:06;;;;;;;4.60;2.20;;;;;;;25.37;18.42;97446.38;5069096;28;20127;-80
2022/02/05 03:01:35;;;;;;;2.47;1.80;;;;;;;25.56;18.07;97448.09;5066558;28;20424;-80
2022/02/05 03:04:02;;;;;;;2.72;1.67;;;;;;;25.54;18.06;97447.75;5060781;28;20028;-80
2022/02/05 03:06:28;;;;;;;2.60;1.67;;;;;;;25.49;18.09;97436.31;5093373;28;20415;-80
2022/02/05 03:08:54;;;;;;;3.65;2.15;;;;;;;25.19;17.90;97432.97;5062206;28;20095;-80
2022/02/05 03:11:22;;;;;;;2.60;2.10;;;;;;;25.13;18.03;97434.81;5067686;28;20074;-80
2022/02/05 03:13:48;;;;;;;2.95;2.08;;;;;;;24.67;18.52;97427.97;5064954;28;20469;-80
2022/02/05 03:16:21;;;;;;;4.45;2.40;;;;;;;24.38;19.09;97433.00;5062973;28;20036;-80
2022/02/05 03:19:08;;;;;;;3.17;2.38;;;;;;;24.93;18.50;97434.31;5064214;28;20733;-80
2022/02/05 03:21:34;;;;;;;2.80;2.47;;;;;;;25.04;18.38;97422.72;5061379;28;20033;-79
2022/02/05 03:24:02;;;;;;;4.72;2.60;;;;;;;24.92;18.50;97415.13;5062210;28;20097;-80
2022/02/05 03:26:28;;;;;;;2.17;1.77;;;;;;;24.86;18.42;97419.75;5055701;28;20032;-80
2022/02/05 03:28:54;;;;;;;1.98;1.77;;;;;;;24.82;18.67;97425.50;5066340;28;20033;-80
2022/02/05 03:31:20;;;;;;;2.28;1.77;;;;;;;24.77;18.65;97420.47;5059666;28;20112;-80
2022/02/05 03:33:46;;;;;;;2.90;2.05;;;;;;;25.03;18.14;97421.16;5061776;28;20033;-80
2022/02/05 03:36:12;;;;;;;2.35;1.73;;;;;;;25.05;18.38;97429.91;5065004;28;20036;-80
2022/02/05 03:38:38;;;;;;;3.80;2.05;;;;;;;25.14;18.05;97439.19;5063198;28;20031;-80
2022/02/05 03:41:04;;;;;;;1.67;1.35;;;;;;;24.47;18.83;97433.09;5059187;28;20049;-80
2022/02/05 03:43:30;;;;;;;2.33;2.13;;;;;;;25.31;18.09;97432.13;5066757;28;20025;-80
2022/02/05 03:45:56;;;;;;;2.03;1.83;;;;;;;24.80;18.61;97436.41;5064603;28;20082;-80
2022/02/05 03:48:22;;;;;;;3.95;2.45;;;;;;;24.74;18.60;97435.38;5062652;28;20064;-81
2022/02/05 03:50:48;;;;;;;4.22;2.10;;;;;;;24.98;18.66;97439.38;5060458;28;20047;-80
2022/02/05 03:53:14;;;;;;;3.05;1.92;;;;;;;24.96;18.11;97438.25;5063710;28;20456;-80
2022/02/05 03:55:45;;;;;;;2.33;1.58;;;;;;;25.25;18.28;97444.44;5064693;28;20488;-80
2022/02/05 03:58:11;;;;;;;3.17;1.70;;;;;;;25.46;18.11;97449.28;5057859;28;20023;-80
2022/02/05 04:00:37;;;;;;;3.25;2.00;;;;;;;25.20;17.99;97447.81;5066685;28;20032;-80
2022/02/05 04:03:03;;;;;;;3.60;1.60;;;;;;;24.47;18.65;97438.72;5059475;28;20103;-81
2022/02/05 04:05:30;;;;;;;2.65;1.83;;;;;;;24.51;18.62;97444.97;5062138;28;20531;-80
2022/02/05 04:07:56;;;;;;;2.88;1.42;;;;;;;24.66;19.20;97440.47;5060613;28;20488;-80
2022/02/05 04:10:29;;;;;;;2.60;1.63;;;;;;;23.52;20.83;97440.94;5061872;28;20078;-80
2022/02/05 04:18:39;;;;;;;2.60;1.85;;;;;;;23.68;19.90;97450.03;5063586;28;20064;-80
2022/02/05 04:21:05;;;;;;;1.98;1.38;;;;;;;24.27;19.35;97443.00;5056027;28;20025;-80
2022/02/05 04:23:32;;;;;;;3.47;1.50;;;;;;;24.60;19.18;97447.09;5060485;28;20064;-80
2022/02/05 04:25:59;;;;;;;2.20;1.95;;;;;;;25.23;18.40;97449.69;5064178;28;20028;-80
2022/02/05 04:28:25;;;;;;;1.70;1.60;;;;;;;25.11;18.43;97451.31;5059417;28;20032;-80
2022/02/05 04:30:51;;;;;;;3.65;2.08;;;;;;;24.27;19.13;97449.38;5067617;28;20107;-80
2022/02/05 04:33:17;;;;;;;2.10;1.90;;;;;;;24.60;19.11;97447.09;5063636;28;20370;-80
2022/02/05 04:35:45;;;;;;;2.20;1.77;;;;;;;24.79;18.67;97448.06;5066233;28;20078;-80
2022/02/05 04:38:11;;;;;;;2.20;2.00;;;;;;;24.13;19.14;97449.88;5060098;28;20040;-80
2022/02/05 04:40:44;;;;;;;2.40;1.58;;;;;;;24.35;19.29;97459.16;5064749;28;20036;-80
2022/02/05 04:43:42;;;;;;;1.50;1.40;;;;;;;;;;5063047;28;20444;-80
2022/02/05 04:56:53;;;;;;;;;;;;;;;24.62;19.62;97481.13;5055612;28;20429;-80
2022/02/05 05:09:39;;;;;;;1.42;1.30;;;;;;;24.61;20.43;97485.94;5064607;28;20041;-80
2022/02/05 05:20:04;;;;;;;1.35;1.25;;;;;;;23.92;21.58;97512.97;5064257;28;20041;-80
2022/02/05 05:22:31;;;;;;;1.67;1.50;;;;;;;24.32;20.89;97516.16;5067283;28;20029;-80
2022/02/05 05:24:58;;;;;;;2.65;1.50;;;;;;;23.64;21.40;97529.84;5068843;28;20484;-80
2022/02/05 05:27:25;;;;;;;1.60;1.30;;;;;;;23.95;21.29;97528.91;5055412;28;20033;-80
2022/02/05 05:29:51;;;;;;;2.13;1.80;;;;;;;21.47;24.48;97532.69;5064414;28;20412;-81
2022/02/05 05:32:17;;;;;;;3.85;1.67;;;;;;;20.51;26.04;97550.34;5058280;28;20059;-80
2022/02/05 05:34:43;;;;;;;1.75;1.52;;;;;;;16.66;32.60;97589.88;5062266;28;20029;-80
2022/02/05 05:37:09;;;;;;;2.45;1.13;;;;;;;16.10;33.39;97604.44;5063766;28;20128;-80
2022/02/05 05:39:37;;;;;;;1.77;0.80;;;;;;;15.32;34.84;97623.44;5068201;28;20040;-81
2022/02/05 05:42:06;;;;;;;2.25;0.70;;;;;;;15.54;34.36;97627.16;5071491;28;20025;-80
2022/02/05 05:47:17;;;;;;;0.70;0.60;;;;;;;16.80;32.05;97631.47;5072167;28;20037;-81
2022/02/05 05:50:08;;;;;;;1.65;0.80;;;;;;;16.48;32.70;97656.34;5066968;28;20024;-81
2022/02/05 05:52:32;;;;;;;1.20;0.82;;;;;;;15.66;33.23;97682.94;5064531;28;20093;-80
2022/02/05 05:54:58;;;;;;;7.88;1.00;;;;;;;15.12;34.48;97669.94;5061035;28;20121;-80
2022/02/05 05:57:25;;;;;;;3.13;1.08;;;;;;;14.57;35.15;97667.50;5067976;28;20033;-81
2022/02/05 05:59:51;;;;;;;1.35;0.90;;;;;;;15.55;32.84;97684.06;5069557;28;20024;-81
2022/02/05 06:02:17;;;;;;;0.93;0.90;;;;;;;16.21;31.84;97691.91;5067880;28;20033;-80
2022/02/05 06:04:43;;;;;;;0.95;0.80;;;;;;;15.77;31.74;97692.13;5068691;28;20029;-81
2022/02/05 06:07:09;;;;;;;0.80;0.68;;;;;;;16.92;30.18;97739.97;5064803;28;20041;-80
2022/02/05 06:09:40;;;;;;;1.30;0.80;;;;;;;16.47;30.18;97733.16;5061644;28;20033;-80
2022/02/05 06:12:07;;;;;;;1.52;1.00;;;;;;;15.91;30.71;97760.59;5061142;28;20041;-80
2022/02/05 06:14:33;;;;;;;2.15;0.70;;;;;;;16.19;30.27;97749.66;5064473;28;20029;-80
2022/02/05 06:17:02;;;;;;;0.50;0.50;;;;;;;16.39;29.95;97769.50;5071030;28;20123;-81
2022/02/05 06:19:28;;;;;;;0.63;0.63;;;;;;;16.90;28.17;97761.75;5064724;28;20086;-81
2022/02/05 06:21:54;;;;;;;1.60;0.60;;;;;;;17.37;27.59;97777.25;5063864;28;20044;-80
2022/02/05 06:24:20;;;;;;;2.05;0.60;;;;;;;17.85;26.29;97777.66;5066790;28;20419;-80
2022/02/05 06:26:46;;;;;;;1.45;0.80;;;;;;;18.05;25.85;97791.88;5058866;28;20055;-80
2022/02/05 06:29:12;;;;;;;3.55;0.60;;;;;;;17.47;27.65;97809.78;5064310;28;20032;-80
2022/02/05 06:31:38;;;;;;;0.52;0.50;;;;;;;17.03;27.30;97801.81;5061788;28;20057;-80
2022/02/05 06:34:04;;;;;;;1.45;0.50;;;;;;;16.64;27.06;97811.22;5061752;28;20086;-80
2022/02/05 06:36:31;;;;;;;1.02;0.40;;;;;;;17.76;25.80;97818.94;5068437;28;20064;-81
2022/02/05 06:38:57;;;;;;;6.40;0.70;;;;;;;18.37;24.40;97807.28;5065514;28;20078;-80
2022/02/05 06:41:23;;;;;;;1.83;0.40;;;;;;;18.39;24.71;97821.56;5062203;28;20135;-80
2022/02/05 06:43:50;;;;;;;1.08;0.52;;;;;;;18.57;24.44;97829.88;5061281;28;20120;-80
2022/02/05 06:46:16;;;;;;;1.10;0.43;;;;;;;18.57;24.47;97833.47;5062140;28;20058;-80
2022/02/05 06:48:42;;;;;;;0.82;0.50;;;;;;;18.08;24.84;97832.78;5065879;28;20508;-80
2022/02/05 06:51:08;;;;;;;1.67;0.50;;;;;;;17.09;26.54;97855.72;5059112;28;20036;-80
2022/02/05 06:53:34;;;;;;;0.65;0.40;;;;;;;17.51;25.58;97843.06;5066745;28;20075;-80
2022/02/05 06:56:00;;;;;;;0.68;0.50;;;;;;;18.47;24.52;97845.41;5060005;28;20036;-81
2022/02/05 06:58:26;;;;;;;0.40;0.40;;;;;;;19.32;22.98;97850.56;5060919;28;20071;-81
2022/02/05 07:00:52;;;;;;;2.22;0.50;;;;;;;18.58;23.90;97845.34;5062670;28;20029;-81
2022/02/05 07:03:21;;;;;;;0.63;0.50;;;;;;;17.57;25.10;97845.13;5058875;28;20107;-80
2022/02/05 07:05:47;;;;;;;1.40;0.60;;;;;;;18.19;24.54;97856.56;5061210;28;20067;-80
2022/02/05 07:08:14;;;;;;;0.40;0.40;;;;;;;17.97;24.72;97855.00;5065743;28;20028;-80
2022/02/05 07:10:40;;;;;;;0.60;0.50;;;;;;;18.43;24.34;97877.16;5064920;28;20400;-80
2022/02/05 07:13:15;;;;;;;2.88;0.60;;;;;;;17.40;25.19;97878.34;5063031;28;20434;-80
2022/02/05 07:16:20;;;;;;;2.20;0.60;;;;;;;16.89;26.22;97881.41;5061710;28;20036;-80
2022/02/05 07:21:08;;;;;;;1.08;0.80;;;;;;;19.17;22.88;97879.66;5067080;28;20044;-81
2022/02/05 07:31:33;;;;;;;0.77;0.50;;;;;;;20.94;21.04;97888.09;5061054;28;20067;-81
2022/02/05 07:34:02;;;;;;;1.23;0.60;;;;;;;21.91;19.90;97892.75;5064894;28;20791;-80
2022/02/05 07:36:29;;;;;;;1.65;0.60;;;;;;;20.14;21.26;97887.72;5063591;28;20025;-81
2022/02/05 07:38:55;;;;;;;0.90;0.50;;;;;;;19.27;23.23;97904.69;5062810;28;20558;-81
2022/02/05 07:41:21;;;;;;;1.25;0.77;;;;;;;18.43;23.95;97899.41;5062426;28;20051;-81
2022/02/05 07:43:47;;;;;;;3.90;0.68;;;;;;;18.70;23.45;97911.66;5068714;28;20044;-80
2022/02/05 07:46:13;;;;;;;2.08;0.73;;;;;;;18.77;24.25;97924.75;5066997;28;20436;-80
2022/02/05 07:48:41;;;;;;;1.05;0.60;;;;;;;18.27;23.95;97916.50;5063715;28;20116;-80
2022/02/05 07:51:07;;;;;;;0.90;0.60;;;;;;;16.80;26.36;97931.69;5066598;28;20103;-80
2022/02/05 07:53:34;;;;;;;2.22;0.70;;;;;;;17.85;24.47;97927.63;5063319;28;20033;-79
2022/02/05 07:56:01;;;;;;;1.88;0.93;;;;;;;18.78;23.56;97929.13;5059913;28;20043;-80
2022/02/05 07:58:27;;;;;;;0.70;0.60;;;;;;;17.67;24.90;97949.00;5067069;28;20472;-79
2022/02/05 08:00:53;;;;;;;1.70;0.70;;;;;;;18.53;23.33;97938.31;5064340;28;20067;-80
2022/02/05 08:03:19;;;;;;;1.45;0.60;;;;;;;19.46;22.75;97945.16;5064552;28;20051;-80
2022/02/05 08:05:46;;;;;;;3.38;1.20;;;;;;;18.14;23.64;97956.97;5065301;28;20039;-79
2022/02/05 08:08:15;;;;;;;1.67;0.68;;;;;;;18.70;23.61;97960.91;5061151;28;20032;-79
2022/02/05 08:13:37;;;;;;;1.85;0.80;;;;;;;18.82;23.21;97971.63;5061955;28;21108;-79
2022/02/05 08:18:49;;;;;;;1.77;0.80;;;;;;;19.62;22.60;97972.53;5063633;28;20043;-80
2022/02/05 08:21:15;;;;;;;1.15;0.60;;;;;;;19.47;21.93;97971.00;5068386;28;20385;-80
2022/02/05 08:23:41;;;;;;;3.38;0.85;;;;;;;18.38;23.42;97986.75;5064072;28;20033;-80
2022/02/05 08:26:07;;;;;;;1.42;0.63;;;;;;;18.43;23.32;97999.47;5063352;28;20400;-79
2022/02/05 08:28:35;;;;;;;3.33;0.82;;;;;;;18.56;23.18;98000.66;5068525;28;20054;-79
2022/02/05 08:31:01;;;;;;;1.73;1.15;;;;;;;18.85;22.39;97995.84;5071992;28;20024;-79
2022/02/05 08:33:28;;;;;;;1.17;0.60;;;;;;;17.88;24.14;98004.56;5066253;28;20076;-79
2022/02/05 08:35:54;;;;;;;3.38;1.00;;;;;;;17.58;24.01;97985.47;5065612;28;20100;-79
2022/02/05 08:38:21;;;;;;;3.38;0.85;;;;;;;18.88;22.29;97995.84;5068158;28;20041;-79
2022/02/05 08:40:47;;;;;;;3.33;0.80;;;;;;;19.57;21.67;98001.59;5068896;28;20051;-79
2022/02/05 08:43:13;;;;;;;2.03;0.80;;;;;;;18.67;22.46;97995.09;5070522;28;20452;-79
2022/02/05 08:45:40;;;;;;;1.52;0.65;;;;;;;19.82;21.76;97996.66;5062956;28;20035;-79
2022/02/05 08:48:06;;;;;;;4.47;0.90;;;;;;;20.06;20.44;97996.91;5070433;28;20087;-80
2022/02/05 08:50:34;;;;;;;2.67;0.77;;;;;;;18.76;22.76;98007.41;5065019;28;20041;-79
2022/02/05 08:53:00;;;;;;;4.05;1.25;;;;;;;18.37;22.82;98010.19;5060228;28;20167;-79
2022/02/05 08:55:31;;;;;;;4.80;0.85;;;;;;;18.27;22.77;97997.09;5064290;28;20028;-79
2022/02/05 08:57:59;;;;;;;2.35;1.25;;;;;;;18.28;22.88;98012.56;5069620;28;20032;-79
2022/02/05 09:00:27;;;;;;;5.22;0.93;;;;;;;18.55;23.17;98004.66;5060589;28;20093;-79
2022/02/05 09:02:59;;;;;;;3.90;1.08;;;;;;;18.76;21.54;98001.03;5063222;28;20060;-79
2022/02/05 09:05:37;;;;;;;3.50;0.95;;;;;;;18.46;22.70;98013.38;5059201;28;20034;-80
2022/02/05 09:08:23;;;;;;;3.00;1.00;;;;;;;19.08;21.69;98013.69;5062945;28;20033;-81
2022/02/05 09:10:57;;;;;;;1.27;0.75;;;;;;;18.12;22.33;98003.81;5061589;28;20040;-81
2022/02/05 09:13:50;;;;;;;1.33;0.70;;;;;;;18.14;22.68;98018.09;5067085;28;20048;-81
2022/02/05 09:16:16;;;;;;;1.63;0.88;;;;;;;19.43;21.21;98028.69;5062610;28;20040;-81
2022/02/05 09:18:45;;;;;;;1.77;0.65;;;;;;;19.45;20.96;98029.09;5064703;28;20109;-80
2022/02/05 09:21:11;;;;;;;1.60;0.90;;;;;;;19.92;20.36;98032.03;5062880;28;20033;-80
2022/02/05 09:23:44;;;;;;;2.50;0.90;;;;;;;19.49;20.68;98027.88;5068096;28;20043;-81
2022/02/05 09:26:12;;;;;;;3.60;0.77;;;;;;;19.47;20.96;98029.47;5063603;28;20037;-80
2022/02/05 09:28:41;;;;;;;4.88;1.00;;;;;;;18.45;22.23;98036.81;5066029;28;20083;-80
2022/02/05 09:33:35;;;;;;;1.20;0.80;;;;;;;18.39;22.63;98046.69;5065200;28;20488;-79
2022/02/05 09:36:02;;;;;;;3.65;1.10;;;;;;;19.28;20.55;98044.63;5065042;28;20454;-79
2022/02/05 09:38:28;;;;;;;2.78;1.33;;;;;;;18.36;21.75;98044.75;5067648;28;20455;-79
2022/02/05 09:40:54;;;;;;;3.33;0.95;;;;;;;18.61;21.41;98055.88;5064586;28;20098;-80
2022/02/05 09:43:28;;;;;;;2.05;0.80;;;;;;;19.02;20.92;98047.91;5069012;28;20722;-79
2022/02/05 09:45:58;;;;;;;2.10;0.90;;;;;;;18.04;21.23;98018.13;5061777;28;20086;-79
2022/02/05 09:48:28;;;;;;;4.57;0.88;;;;;;;18.19;22.83;98039.94;5066541;28;20040;-80
2022/02/05 09:50:55;;;;;;;5.38;1.27;;;;;;;18.88;21.57;98039.56;5061429;28;20029;-80
2022/02/05 09:53:22;;;;;;;3.75;0.85;;;;;;;19.62;20.62;98034.59;5061013;28;20024;-80
2022/02/05 09:55:50;;;;;;;4.15;0.90;;;;;;;19.82;20.36;98029.28;5066085;28;20032;-80
2022/02/05 09:58:18;;;;;;;2.50;0.90;;;;;;;19.40;21.09;98044.22;5067985;28;20531;-80
2022/02/05 10:01:14;;;;;;;2.38;0.82;;;;;;;19.29;20.23;98046.22;5063848;28;20036;-80
2022/02/05 10:03:45;;;;;;;2.15;0.95;;;;;;;20.68;20.54;98040.25;5062263;28;20518;-80
2022/02/05 10:06:27;;;;;;;3.35;0.98;;;;;;;18.90;20.98;98043.53;5063650;28;20045;-80
2022/02/05 10:09:06;;;;;;;2.90;0.60;;;;;;;20.54;19.59;98034.00;5059567;28;20029;-80
2022/02/05 10:12:02;;;;;;;3.38;0.90;;;;;;;21.26;18.11;98036.50;5059490;28;20025;-81
2022/02/05 10:14:32;;;;;;;2.58;0.63;;;;;;;21.88;18.21;98021.38;5064329;28;20107;-80
2022/02/05 10:17:00;;;;;;;4.80;0.97;;;;;;;21.24;18.07;98041.72;5059706;28;20033;-80
2022/02/05 10:20:03;;;;;;;3.17;1.10;;;;;;;20.67;18.54;98037.88;5062652;28;20523;-80
2022/02/05 10:22:37;;;;;;;3.15;1.10;;;;;;;20.39;18.97;98044.50;5063120;28;20028;-81
2022/02/05 10:25:14;;;;;;;2.50;0.90;;;;;;;18.85;19.85;98032.81;5063731;28;20025;-81
2022/02/05 10:27:42;;;;;;;2.35;0.82;;;;;;;19.14;20.61;98039.09;5062995;28;20405;-80
2022/02/05 10:30:09;;;;;;;4.38;1.55;;;;;;;19.77;20.81;98026.94;5064692;28;20033;-79
2022/02/05 10:32:45;;;;;;;3.90;0.80;;;;;;;19.86;19.75;98025.28;5062048;28;20075;-80
2022/02/05 10:43:13;;;;;;;4.90;0.88;;;;;;;19.21;19.91;98027.94;5059899;28;20067;-80
2022/02/05 10:45:48;;;;;;;3.78;0.95;;;;;;;19.15;20.19;98016.44;5059875;28;20484;-81
2022/02/05 10:48:16;;;;;;;2.28;0.65;;;;;;;20.22;19.14;98031.47;5066133;28;20044;-80
2022/02/05 10:50:43;;;;;;;2.08;0.70;;;;;;;21.20;18.88;98027.00;5061239;28;20544;-80
2022/02/05 10:53:24;;;;;;;2.80;1.00;;;;;;;20.39;18.63;98029.75;5059354;28;20028;-80
2022/02/05 10:56:17;;;;;;;1.17;0.70;;;;;;;20.46;18.20;98024.91;5060749;28;20103;-80
2022/02/05 11:07:09;;;;;;;2.40;1.00;;;;;;;22.79;16.84;98010.78;5066662;28;20573;-81
2022/02/05 11:09:40;;;;;;;3.35;1.27;;;;;;;22.93;17.54;98020.91;5062849;28;20029;-80
2022/02/05 11:20:11;;;;;;;4.65;1.73;;;;;;;22.24;17.15;98024.47;5057503;28;20404;-80
2022/02/05 11:22:41;;;;;;;5.63;1.90;;;;;;;21.59;18.93;98025.72;5059225;28;20028;-81
2022/02/05 11:25:09;;;;;;;4.57;2.22;;;;;;;21.72;17.88;98035.94;5060365;28;20036;-81
2022/02/05 11:27:44;;;;;;;5.57;2.40;;;;;;;21.54;17.55;98038.16;5059575;28;20029;-81
2022/02/05 11:30:29;;;;;;;5.78;2.03;;;;;;;22.33;16.70;98035.91;5058446;28;20033;-80
2022/02/05 11:32:59;;;;;;;6.18;2.28;;;;;;;22.39;17.34;98029.41;5066597;28;20074;-80
2022/02/05 11:35:45;;;;;;;7.60;3.53;;;;;;;21.81;17.90;98027.84;5063418;28;20033;-80
2022/02/05 11:38:12;;;;;;;7.35;3.05;;;;;;;22.51;17.39;98028.81;5064201;28;20032;-80
2022/02/05 11:40:40;;;;;;;5.15;2.20;;;;;;;22.50;17.49;98024.41;5069559;28;20416;-80
2022/02/05 11:43:31;;;;;;;6.07;2.28;;;;;;;22.58;17.04;98030.69;5070650;28;20031;-80
2022/02/05 11:46:08;;;;;;;4.00;1.90;;;;;;;23.57;16.72;98028.91;5061544;28;20028;-80
2022/02/05 11:48:43;;;;;;;6.00;2.15;;;;;;;23.90;16.28;98024.97;5062499;28;20025;-80
2022/02/05 11:51:11;;;;;;;5.13;2.20;;;;;;;23.30;15.91;98029.81;5062501;28;20035;-80
2022/02/05 11:53:56;;;;;;;4.75;2.03;;;;;;;23.19;16.91;98037.63;5068557;28;20032;-80
2022/02/05 11:56:55;;;;;;;3.92;1.70;;;;;;;20.99;20.05;98041.16;5063775;28;20036;-80
2022/02/05 11:59:59;;;;;;;4.53;1.60;;;;;;;20.97;18.86;98057.53;5061276;28;20393;-80
2022/02/05 12:02:38;;;;;;;2.95;1.70;;;;;;;20.66;19.98;98076.13;5055123;28;20049;-80
2022/02/05 12:05:35;;;;;;;5.32;2.03;;;;;;;16.92;26.96;98081.06;5062037;28;20055;-80
2022/02/05 12:08:04;;;;;;;5.50;2.10;;;;;;;15.74;29.17;98088.66;5057442;28;20091;-80
2022/02/05 12:10:41;;;;;;;2.83;1.52;;;;;;;17.90;26.57;98072.44;5060607;28;20032;-80
2022/02/05 12:13:23;;;;;;;4.80;2.08;;;;;;;19.36;24.01;98062.94;5061952;28;20043;-80
2022/02/05 12:15:55;;;;;;;4.82;1.45;;;;;;;20.47;22.62;98065.53;5063254;28;20041;-81
2022/02/05 12:18:27;;;;;;;2.78;1.10;;;;;;;20.76;22.20;98057.72;5065654;28;20033;-81
2022/02/05 12:26:30;;;;;;;5.97;1.60;;;;;;;19.83;22.58;98069.91;5058465;28;20102;-80
2022/02/05 12:29:00;;;;;;;2.58;1.02;;;;;;;20.70;22.44;98092.84;5060414;28;20032;-81
2022/02/05 12:31:30;;;;;;;3.85;1.05;;;;;;;18.59;24.55;98106.34;5065187;28;20037;-81
2022/02/05 12:34:10;;;;;;;3.00;0.90;;;;;;;16.69;27.71;98127.63;5065006;28;20119;-81
2022/02/05 12:36:46;;;;;;;4.70;1.30;;;;;;;16.86;27.61;98129.75;5060699;28;20033;-82
2022/02/05 12:39:15;;;;;;;3.22;0.90;;;;;;;16.23;28.60;98151.28;5055408;28;20055;-81
2022/02/05 12:41:51;;;;;;;3.00;1.10;;;;;;;15.38;31.42;98130.06;5061993;28;20037;-81
2022/02/05 12:44:21;;;;;;;2.42;0.90;;;;;;;16.39;29.19;98110.28;5068570;28;20400;-81
2022/02/05 12:46:53;;;;;;;4.05;1.00;;;;;;;18.14;26.03;98107.03;5062698;28;20041;-81
2022/02/05 12:52:06;;;;;;;2.22;0.80;;;;;;;20.75;22.84;98106.34;5063289;28;20117;-81
2022/02/05 12:54:35;;;;;;;2.28;0.80;;;;;;;21.53;21.59;98100.03;5069748;28;20410;-81
2022/02/05 12:57:02;;;;;;;2.70;1.20;;;;;;;21.31;22.26;98105.06;5066894;28;20503;-82
2022/02/05 12:59:38;;;;;;;1.58;1.00;;;;;;;22.41;21.27;98091.31;5067043;28;20101;-82
2022/02/05 13:02:10;;;;;;;3.10;1.40;;;;;;;22.60;21.22;98087.84;5069450;28;20055;-82
2022/02/05 13:04:39;;;;;;;2.88;1.88;;;;;;;22.72;20.94;98085.66;5069079;28;20056;-83
2022/02/05 13:07:13;;;;;;;2.58;1.40;;;;;;;22.74;21.14;98086.81;5065974;28;20024;-84
2022/02/05 13:09:54;;;;;;;7.88;1.83;;;;;;;22.50;21.38;98088.78;5067305;28;20040;-84
2022/02/05 13:12:35;;;;;;;2.90;1.90;;;;;;;23.24;20.66;98089.56;5068507;28;20370;-83
2022/02/05 13:15:18;;;;;;;2.90;1.42;;;;;;;22.59;21.55;98096.66;5070025;28;20157;-83
2022/02/05 13:28:49;;;;;;;5.75;2.75;;;;;;;21.95;22.28;98082.78;5075681;28;20063;-84
2022/02/05 13:39:18;;;;;;;5.38;2.58;;;;;;;23.69;20.61;98081.50;5074275;28;20403;-83
2022/02/05 13:41:56;;;;;;;8.90;3.30;;;;;;;23.01;20.91;98087.56;5075868;28;21575;-84
2022/02/05 13:44:24;;;;;;;5.85;2.88;;;;;;;23.28;20.71;98095.88;5071245;28;20033;-84
2022/02/05 13:47:03;;;;;;;5.18;2.58;;;;;;;24.37;19.84;98095.69;5069987;28;20462;-83
2022/02/05 13:49:30;;;;;;;6.55;3.05;;;;;;;24.51;19.59;98096.16;5070975;28;20060;-83
2022/02/05 13:52:04;;;;;;;4.95;2.85;;;;;;;22.67;20.80;98098.94;5065190;28;20102;-83
2022/02/05 13:54:34;;;;;;;5.13;2.75;;;;;;;21.63;22.23;98107.53;5060961;28;20123;-84
2022/02/05 13:57:01;;;;;;;2.92;1.67;;;;;;;20.75;23.31;98111.16;5062115;28;20037;-83
2022/02/05 13:59:28;;;;;;;7.15;3.45;;;;;;;20.35;23.03;98105.03;5072218;28;20044;-83
2022/02/05 14:01:54;;;;;;;4.20;2.30;;;;;;;20.74;23.16;98109.56;5068904;28;20024;-84
2022/02/05 14:04:24;;;;;;;6.15;2.13;;;;;;;21.69;22.06;98109.44;5067479;28;20041;-84
2022/02/05 14:06:58;;;;;;;5.60;2.00;;;;;;;21.31;22.19;98113.44;5060053;28;20485;-83
2022/02/05 14:09:30;;;;;;;6.57;2.67;;;;;;;20.52;22.70;98125.66;5057594;28;20039;-83
2022/02/05 14:11:57;;;;;;;8.60;2.58;;;;;;;20.39;23.03;98121.78;5068483;28;20036;-82
2022/02/05 14:14:35;;;;;;;5.43;1.92;;;;;;;20.67;22.91;98119.59;5070938;28;20029;-83
2022/02/05 14:17:01;;;;;;;4.03;2.10;;;;;;;21.67;21.72;98114.66;5059978;28;20032;-83
2022/02/05 14:19:29;;;;;;;4.10;2.05;;;;;;;21.96;21.13;98113.09;5064428;28;20036;-83
2022/02/05 14:21:57;;;;;;;6.20;2.20;;;;;;;21.76;21.08;98106.56;5062671;28;20032;-83
2022/02/05 14:24:28;;;;;;;8.10;2.67;;;;;;;21.66;21.51;98120.63;5058599;28;20151;-83
2022/02/05 14:27:14;;;;;;;5.18;2.25;;;;;;;22.38;20.63;98117.31;5060979;28;20419;-83
2022/02/05 14:29:56;;;;;;;8.50;3.53;;;;;;;22.04;20.83;98111.03;5064253;28;20119;-83
2022/02/05 14:32:42;;;;;;;12.20;4.00;;;;;;;22.08;20.80;98128.53;5063521;28;20032;-83
2022/02/05 14:40:47;;;;;;;4.32;2.30;;;;;;;21.37;21.69;98175.25;5065900;28;20079;-82
2022/02/05 14:43:16;;;;;;;5.47;1.92;;;;;;;20.17;23.13;98196.34;5061648;28;20032;-83
2022/02/05 14:45:44;;;;;;;4.63;2.30;;;;;;;19.18;24.71;98204.88;5064124;28;20540;-83
2022/02/05 14:48:10;;;;;;;6.35;2.47;;;;;;;17.79;26.74;98209.66;5070778;28;20025;-83
2022/02/05 14:50:36;;;;;;;5.35;2.63;;;;;;;17.85;26.49;98197.00;5061967;28;20039;-83
2022/02/05 14:53:03;;;;;;;4.72;1.63;;;;;;;16.38;28.71;98206.47;5063178;28;20074;-83
2022/02/05 14:55:29;;;;;;;2.00;1.60;;;;;;;16.86;28.03;98203.81;5061777;28;20116;-82
2022/02/05 14:57:55;;;;;;;3.38;1.98;;;;;;;17.97;26.78;98196.66;5060714;28;20047;-81
2022/02/05 15:00:22;;;;;;;3.55;1.67;;;;;;;18.14;26.19;98198.72;5064552;28;20370;-80
2022/02/05 15:02:52;;;;;;;5.70;2.10;;;;;;;18.50;25.45;98200.47;5061897;28;20028;-82
2022/02/05 15:05:18;;;;;;;2.65;1.30;;;;;;;18.38;25.68;98192.44;5064033;28;20499;-81
2022/02/05 15:07:45;;;;;;;2.92;1.20;;;;;;;17.93;26.52;98193.88;5065500;28;20056;-80
2022/02/05 15:10:17;;;;;;;3.40;1.13;;;;;;;17.52;27.16;98197.22;5055789;28;20451;-81
2022/02/05 15:12:43;;;;;;;3.17;1.20;;;;;;;16.84;27.72;98198.66;5063345;28;20385;-82
2022/02/05 15:15:21;;;;;;;2.88;1.20;;;;;;;16.63;28.59;98217.84;5065780;28;20064;-82